Tropical Cyclones
[Index]
Main Index Home Page Stock Weather Photos Extreme Storms Discussion Storm News and Storm Chasing Reports Tropical Cyclones / Hurricanes / Typhoons Weather Data and Links Wild Fires / Bushfires Weather Observation Techniques Weather Picture Catalogue Tornado Pictures and Reports Stock Video Footage and DVDs for sale
Season 2002-2003 Tropical Cyclone CRAIG Track Map
Season 2002-2003 Summaries: [BoM-AU] [JTWC-AU] [JTWC-SIO] [JTWC-SPAC] [JTWC-SH]
<<- Previous TC | BoM 2002-2003 Season | Next TC ->>

click for intensity scale information  Lat/long Grid: Show Hide

 Date Labels: Show Hide

Bureau of Meteorology Tropical Cyclone Data

Name: CRAIG
Number: 866 / 200203_06

07 Mar 2003 12:00 UTC to 12 Mar 2003 21:00 UTC

    date/time    lat    long    hPa   cat  kts
2003-03-07 12   13.0   130.3   1004         10          
2003-03-07 18   12.4   130.0   1001         15          
2003-03-07 21   12.0   129.7   1000         15          
2003-03-08 00   11.7   129.5   1000         15          
2003-03-08 03   11.6   129.2    998         20          
2003-03-08 06   11.4   129.0    998         20          
2003-03-08 09   11.3   129.2    998         20          
2003-03-08 12   11.2   129.3    998         20          
2003-03-08 15   11.1   129.4    996         25          
2003-03-08 18   11.2   129.6    996         25          
2003-03-08 21   11.4   129.4    993    1    30          
2003-03-09 00   11.1   129.1    993    1    30          
2003-03-09 03   10.8   128.9    990    1    35          
2003-03-09 06   10.6   129.0    990    1    35          
2003-03-09 09   10.7   129.3    988    1    40          
2003-03-09 12   10.7   129.7    988    1    40          
2003-03-09 15   10.6   130.0    988    1    40          
2003-03-09 18   10.6   130.3    985    2    45          
2003-03-09 21   10.8   130.5    985    2    45          
2003-03-10 00   11.0   130.6    985    2    45          
2003-03-10 03   11.1   130.7    985    2    45          
2003-03-10 06   11.2   130.9    982    2    50          
2003-03-10 08   11.3   130.8                            
2003-03-10 09   11.3   130.8    982    2    50          
2003-03-10 12   11.4   131.1    982    2    50          
2003-03-10 15   11.4   131.3    982    2    50          
2003-03-10 18   11.4   131.4    982    2    50          
2003-03-10 21   11.5   131.8    976    2    55          
2003-03-11 00   11.6   132.2    976    2    55          
2003-03-11 03   11.8   132.6    976    2    55          
2003-03-11 06   11.9   133.1    980    2    50          
2003-03-11 09   12.0   133.7    984    2    45          
2003-03-11 12   12.1   134.4    988    1    40          
2003-03-11 15   12.1   135.2    991    1    35          
2003-03-11 18   12.2   136.1    988    1    40          
2003-03-11 21   12.5   137.1    988    1    40          
2003-03-12 00   13.0   138.0    985    2    45          
2003-03-12 03   13.7   139.0    985    2    45          
2003-03-12 06   14.5   140.1    982    2    50          
2003-03-12 09   15.0   140.7    982    2    50          
2003-03-12 12   15.2   141.0    990    1    35          
2003-03-12 15   15.6   141.0    994    1    30          
2003-03-12 18   15.4   141.0    997         25          
2003-03-12 21   15.2   141.4    998         25          
Winds are 10-min average.

Tropical cyclone tracks developed by Michael Bath using data from the Bureau of Meteorology and Google Maps.


[Australian Severe Weather index] [Copyright Notice] [Email Contacts] [Search This Site] [Privacy Policy]
Document: tropical_cyclone_craig.htm Updated: 29 June 2017